Time;durP1;ratioP1;P1;durP2;ratioP2;P2;SDS_P1;SDS_P2;PMS_P1;PMS_P2;Temp;Humidity;BMP_temperature;BMP_pressure;BME280_temperature;BME280_humidity;BME280_pressure;Samples;Min_cycle;Max_cycle;Signal;HPM_P1;HPM_P2
2023/01/07 00:00:51;;;;;;;0.65;0.65;;;;;;;12.87;75.19;101575.81;5110777;28;20036;-81
2023/01/07 00:03:17;;;;;;;0.15;0.15;;;;;;;12.94;75.36;101580.09;5111070;28;20055;-81
2023/01/07 00:05:44;;;;;;;0.10;0.10;;;;;;;12.95;75.36;101571.22;5112015;28;20487;-80
2023/01/07 00:08:10;;;;;;;0.10;0.10;;;;;;;12.94;74.94;101558.81;5110309;28;20031;-81
2023/01/07 00:10:37;;;;;;;0.10;0.10;;;;;;;12.94;74.89;101563.25;5114942;28;20047;-81
2023/01/07 00:13:03;;;;;;;0.10;0.10;;;;;;;12.94;75.03;101566.78;5114862;28;20024;-81
2023/01/07 00:15:29;;;;;;;0.10;0.10;;;;;;;12.88;74.96;101558.91;5105723;28;20027;-81
2023/01/07 00:17:55;;;;;;;1.10;1.10;;;;;;;12.89;74.39;101559.81;5104509;28;20055;-81
2023/01/07 00:20:21;;;;;;;0.68;0.68;;;;;;;12.89;74.73;101559.81;5107847;28;20036;-80
2023/01/07 00:22:49;;;;;;;0.50;0.50;;;;;;;12.86;74.89;101559.84;5110053;28;20032;-81
2023/01/07 00:25:16;;;;;;;0.10;0.10;;;;;;;12.84;74.48;101557.22;5103797;28;20458;-80
2023/01/07 00:27:42;;;;;;;0.17;0.17;;;;;;;12.85;74.25;101561.66;5110717;28;20027;-80
2023/01/07 00:30:08;;;;;;;0.15;0.15;;;;;;;12.82;74.20;101551.06;5096488;28;20028;-80
2023/01/07 00:33:03;;;;;;;0.20;0.20;;;;;;;12.82;74.25;101556.38;5097663;28;20114;-81
2023/01/07 00:35:22;;;;;;;0.20;0.20;;;;;;;12.84;74.17;101549.25;5094894;28;20115;-81
2023/01/07 00:37:50;;;;;;;0.10;0.10;;;;;;;12.78;74.32;101546.69;5079267;28;20124;-81
2023/01/07 00:40:17;;;;;;;0.10;0.10;;;;;;;12.77;74.06;101547.59;5094538;28;20036;-81
2023/01/07 00:43:14;;;;;;;0.28;0.28;;;;;;;12.75;74.17;101546.78;5104002;28;20038;-80
2023/01/07 00:45:32;;;;;;;0.10;0.10;;;;;;;12.81;73.99;101544.00;5107304;28;20028;-80
2023/01/07 00:48:00;;;;;;;1.55;0.57;;;;;;;12.79;74.08;101548.47;5106616;28;20051;-80
2023/01/07 00:50:31;;;;;;;0.10;0.10;;;;;;;12.76;74.46;101544.06;5108300;28;20100;-80
2023/01/07 00:52:57;;;;;;;0.10;0.10;;;;;;;12.79;73.80;101538.69;5108486;28;20517;-80
2023/01/07 00:55:25;;;;;;;0.10;0.10;;;;;;;12.81;73.78;101535.13;5102360;28;20036;-81
2023/01/07 00:57:51;;;;;;;0.10;0.10;;;;;;;12.80;74.04;101528.94;5093761;28;20115;-80
2023/01/07 01:00:20;;;;;;;0.10;0.10;;;;;;;12.81;73.64;101522.72;5096114;28;20036;-81
2023/01/07 01:02:47;;;;;;;0.75;0.75;;;;;;;12.81;73.79;101527.16;5078157;28;20047;-80
2023/01/07 01:05:13;;;;;;;0.10;0.10;;;;;;;12.79;73.92;101529.84;5093839;28;20024;-81
2023/01/07 01:07:40;;;;;;;0.28;0.28;;;;;;;12.83;73.66;101518.25;5091709;28;20062;-81
2023/01/07 01:10:10;;;;;;;0.10;0.10;;;;;;;12.83;73.47;101517.38;5101893;28;20028;-81
2023/01/07 01:12:36;;;;;;;0.10;0.10;;;;;;;12.84;73.76;101519.13;5089366;28;20034;-81
2023/01/07 01:15:07;;;;;;;0.10;0.10;;;;;;;12.86;73.32;101514.63;5085928;28;20028;-80
2023/01/07 01:17:33;;;;;;;0.40;0.40;;;;;;;12.80;73.81;101513.00;5095177;28;20027;-81
2023/01/07 01:19:59;;;;;;;0.20;0.20;;;;;;;12.82;73.46;101510.28;5094734;28;20075;-81
2023/01/07 01:22:26;;;;;;;0.57;0.57;;;;;;;12.83;73.25;101506.75;5093193;28;20059;-81
2023/01/07 01:24:52;;;;;;;1.85;1.20;;;;;;;12.81;73.86;101501.47;5092725;28;20040;-81
2023/01/07 01:27:19;;;;;;;0.10;0.10;;;;;;;12.84;73.48;101495.19;5095753;28;20020;-81
2023/01/07 01:29:45;;;;;;;0.32;0.32;;;;;;;12.86;73.46;101491.59;5096188;28;20039;-81
2023/01/07 01:32:12;;;;;;;0.10;0.10;;;;;;;12.86;73.92;101496.91;5092939;28;20035;-80
2023/01/07 01:34:38;;;;;;;0.10;0.10;;;;;;;12.88;73.32;101489.78;5093017;28;20069;-80
2023/01/07 01:37:04;;;;;;;0.10;0.10;;;;;;;12.79;73.16;101492.63;5100440;28;20016;-80
2023/01/07 01:39:30;;;;;;;0.22;0.22;;;;;;;12.82;73.16;101495.19;5104181;28;20028;-81
2023/01/07 01:41:56;;;;;;;0.68;0.68;;;;;;;12.81;73.26;101487.25;5104141;28;20020;-81
2023/01/07 01:44:47;;;;;;;1.38;0.85;;;;;;;12.87;73.03;101490.69;5100448;28;20032;-81
2023/01/07 01:47:34;;;;;;;0.10;0.10;;;;;;;12.84;73.12;101490.75;5087926;28;20032;-81
2023/01/07 01:50:23;;;;;;;0.10;0.10;;;;;;;12.87;73.13;101479.16;5078586;28;20028;-80
2023/01/07 01:55:32;;;;;;;0.10;0.10;;;;;;;12.85;73.63;101478.34;5119471;27;1209163;-80
2023/01/07 01:58:02;;;;;;;0.10;0.10;;;;;;;12.84;73.27;101484.56;5116484;27;20028;-80
2023/01/07 02:00:29;;;;;;;0.20;0.20;;;;;;;12.81;73.08;101485.50;5113110;28;20490;-80
2023/01/07 02:02:57;;;;;;;0.10;0.10;;;;;;;12.80;72.65;101481.09;5114098;28;20099;-80
2023/01/07 02:05:30;;;;;;;0.32;0.32;;;;;;;12.80;72.80;101483.75;5115096;28;20162;-80
2023/01/07 02:07:56;;;;;;;0.10;0.10;;;;;;;12.73;72.36;101479.44;5113537;28;20606;-79
2023/01/07 02:10:24;;;;;;;0.10;0.10;;;;;;;12.67;72.83;101479.56;5110844;28;20489;-80
2023/01/07 02:13:19;;;;;;;0.10;0.10;;;;;;;12.71;72.44;101479.47;5110399;28;20127;-79
2023/01/07 02:21:45;;;;;;;0.10;0.10;;;;;;;12.55;73.08;101473.56;5108362;27;20449;-80
2023/01/07 02:24:43;;;;;;;1.05;1.00;;;;;;;12.51;72.92;101469.22;5113046;28;20079;-78
2023/01/07 02:27:24;;;;;;;0.85;0.85;;;;;;;12.41;73.06;101473.81;5110718;28;20031;-81
2023/01/07 02:35:30;;;;;;;0.10;0.10;;;;;;;12.30;72.78;101465.16;5109940;27;1203575;-79
2023/01/07 02:38:23;;;;;;;0.60;0.60;;;;;;;12.29;73.45;101469.56;5110361;27;20051;-80
2023/01/07 02:41:16;;;;;;;2.33;2.20;;;;;;;12.23;73.23;101459.03;5101948;28;20019;-80
2023/01/07 02:46:49;;;;;;;0.20;0.20;;;;;;;12.03;73.93;101456.72;5074142;28;20103;-80
2023/01/07 02:49:16;;;;;;;0.10;0.10;;;;;;;12.04;73.37;101447.00;5051158;28;20524;-79
2023/01/07 02:51:45;;;;;;;0.10;0.10;;;;;;;12.02;73.93;101448.78;5050965;28;20697;-81
2023/01/07 02:54:18;;;;;;;0.17;0.17;;;;;;;11.98;73.47;101448.81;5049595;28;20029;-81
2023/01/07 03:00:21;;;;;;;0.10;0.10;;;;;;;11.98;73.66;101442.66;5122145;27;20409;-82
2023/01/07 03:03:27;;;;;;;0.73;0.73;;;;;;;11.92;73.80;101427.66;5116122;28;20118;-81
2023/01/07 03:06:25;;;;;;;0.10;0.10;;;;;;;11.95;74.28;101432.03;5131341;28;20035;-81
2023/01/07 03:09:04;;;;;;;0.10;0.10;;;;;;;11.91;73.68;101430.34;5107511;28;20042;-82
2023/01/07 03:11:46;;;;;;;0.75;0.75;;;;;;;11.88;73.91;101433.06;5110933;28;20459;-81
2023/01/07 03:14:19;;;;;;;0.10;0.10;;;;;;;11.88;74.36;101425.09;5116844;28;20489;-80
2023/01/07 03:16:53;;;;;;;0.45;0.45;;;;;;;11.85;73.95;101430.44;5115616;28;20068;-81
2023/01/07 03:19:27;;;;;;;0.17;0.17;;;;;;;11.86;73.75;101429.53;5114943;28;20024;-80
2023/01/07 03:21:55;;;;;;;0.45;0.45;;;;;;;11.84;73.99;101429.56;5114808;28;20065;-80
2023/01/07 03:24:23;;;;;;;0.10;0.10;;;;;;;11.84;73.56;101424.25;5112642;28;20024;-81
2023/01/07 03:26:54;;;;;;;1.02;0.60;;;;;;;11.81;73.94;101413.66;5114096;28;20036;-79
2023/01/07 03:29:22;;;;;;;0.25;0.25;;;;;;;11.79;73.74;101410.19;5104888;28;20024;-80
2023/01/07 03:32:03;;;;;;;0.10;0.10;;;;;;;11.80;74.42;101407.50;5120363;28;20038;-80
2023/01/07 03:34:31;;;;;;;1.00;0.75;;;;;;;11.78;74.07;101403.13;5123392;28;20026;-80
2023/01/07 03:37:03;;;;;;;0.15;0.15;;;;;;;11.80;74.19;101409.25;5117567;28;20477;-80
2023/01/07 03:39:33;;;;;;;0.20;0.20;;;;;;;11.78;74.00;101405.78;5117774;28;20027;-80
2023/01/07 03:44:45;;;;;;;0.13;0.13;;;;;;;11.69;74.05;101408.56;5125059;28;20039;-78
2023/01/07 03:47:12;;;;;;;0.30;0.30;;;;;;;11.68;73.86;101409.47;5116963;28;20047;-78
2023/01/07 03:49:38;;;;;;;0.20;0.20;;;;;;;11.63;74.12;101402.44;5125349;28;20015;-81
2023/01/07 03:52:04;;;;;;;1.48;1.45;;;;;;;11.62;74.29;101402.47;5110819;28;20104;-81
2023/01/07 03:54:30;;;;;;;0.13;0.13;;;;;;;11.58;74.30;101396.34;5105642;28;20031;-79
2023/01/07 03:56:56;;;;;;;0.22;0.22;;;;;;;11.63;74.10;101394.47;5103173;28;20024;-80
2023/01/07 03:59:22;;;;;;;0.75;0.75;;;;;;;11.59;74.48;101398.09;5112012;28;20067;-80
2023/01/07 04:01:48;;;;;;;0.10;0.10;;;;;;;11.62;74.85;101397.16;5106279;28;20048;-82
2023/01/07 04:04:14;;;;;;;0.17;0.17;;;;;;;11.61;74.66;101385.69;5106989;28;20606;-80
2023/01/07 04:06:40;;;;;;;0.20;0.20;;;;;;;11.65;74.65;101395.34;5105232;28;20036;-80
2023/01/07 04:09:07;;;;;;;0.20;0.20;;;;;;;11.67;74.64;101394.44;5100392;28;20078;-80
2023/01/07 04:11:33;;;;;;;0.20;0.20;;;;;;;11.68;74.40;101385.59;5091715;28;20040;-80
2023/01/07 04:13:59;;;;;;;0.10;0.10;;;;;;;11.70;74.85;101375.81;5093934;28;20043;-81
2023/01/07 04:16:26;;;;;;;2.00;1.88;;;;;;;11.74;74.81;101382.81;5088299;28;20036;-79
2023/01/07 04:18:52;;;;;;;0.10;0.10;;;;;;;11.70;74.58;101383.75;5090951;28;20256;-81
2023/01/07 04:21:18;;;;;;;0.15;0.15;;;;;;;11.69;75.12;101382.00;5098360;28;20044;-82
2023/01/07 04:23:44;;;;;;;0.40;0.40;;;;;;;11.73;74.94;101381.06;5094483;28;20036;-82
2023/01/07 04:26:10;;;;;;;0.10;0.10;;;;;;;11.76;74.74;101370.41;5084520;28;20563;-81
2023/01/07 04:28:36;;;;;;;0.10;0.10;;;;;;;11.76;74.30;101367.75;5089582;28;20024;-82
2023/01/07 04:31:02;;;;;;;0.10;0.10;;;;;;;11.75;74.76;101356.25;5086919;28;20039;-81
2023/01/07 04:33:29;;;;;;;0.10;0.10;;;;;;;11.78;74.52;101360.63;5094027;28;20108;-81
2023/01/07 04:35:56;;;;;;;1.60;1.30;;;;;;;11.81;74.50;101360.56;5093269;28;20710;-80
2023/01/07 04:38:22;;;;;;;3.55;2.90;;;;;;;11.83;74.02;101356.13;5092974;28;20027;-80
2023/01/07 04:40:49;;;;;;;0.10;0.10;;;;;;;11.84;74.31;101359.63;5099787;28;20044;-79
2023/01/07 04:43:15;;;;;;;0.10;0.10;;;;;;;11.82;74.46;101352.59;5110917;28;20337;-79
2023/01/07 04:45:41;;;;;;;0.17;0.17;;;;;;;11.81;74.07;101353.50;5095826;28;20052;-81
2023/01/07 04:48:07;;;;;;;0.08;0.08;;;;;;;11.81;73.99;101355.25;5096711;28;20044;-80
2023/01/07 04:50:33;;;;;;;0.43;0.43;;;;;;;11.82;74.06;101357.00;5096295;28;20039;-80
2023/01/07 04:53:00;;;;;;;0.93;0.85;;;;;;;11.82;74.35;101351.72;5096387;28;20549;-80
2023/01/07 04:55:26;;;;;;;0.20;0.20;;;;;;;11.83;74.11;101353.47;5094908;28;20394;-80
2023/01/07 04:57:54;;;;;;;0.10;0.10;;;;;;;11.87;74.32;101352.50;5094518;28;20027;-81
2023/01/07 05:00:20;;;;;;;0.10;0.10;;;;;;;11.87;74.79;101349.84;5095254;28;20028;-82
2023/01/07 05:02:46;;;;;;;3.22;2.08;;;;;;;11.87;74.50;101347.19;5096485;28;20122;-82
2023/01/07 05:05:13;;;;;;;0.30;0.30;;;;;;;11.87;74.47;101348.97;5096144;28;20022;-80
2023/01/07 05:07:39;;;;;;;0.10;0.10;;;;;;;11.93;74.73;101336.47;5095956;28;20535;-81
2023/01/07 05:10:05;;;;;;;0.20;0.20;;;;;;;11.95;74.19;101329.34;5094732;28;20039;-81
2023/01/07 05:12:35;;;;;;;0.10;0.10;;;;;;;11.97;74.74;101330.25;5095664;28;20024;-81
2023/01/07 05:15:02;;;;;;;0.10;0.10;;;;;;;11.94;74.50;101324.94;5099778;28;20504;-80
2023/01/07 05:17:28;;;;;;;0.28;0.28;;;;;;;11.97;74.05;101316.06;5093338;28;20039;-78
2023/01/07 05:19:55;;;;;;;0.10;0.10;;;;;;;11.91;74.45;101325.00;5094088;28;20474;-80
2023/01/07 05:22:21;;;;;;;1.25;1.25;;;;;;;11.89;74.07;101313.53;5087587;28;20035;-80
2023/01/07 05:24:47;;;;;;;0.45;0.45;;;;;;;11.83;74.38;101326.91;5096849;28;20063;-80
2023/01/07 05:27:13;;;;;;;0.38;0.38;;;;;;;11.84;74.12;101320.72;5088178;28;20453;-80
2023/01/07 05:29:39;;;;;;;0.10;0.10;;;;;;;11.83;74.18;101316.28;5096504;28;20394;-81
2023/01/07 05:32:05;;;;;;;1.65;1.55;;;;;;;11.83;74.44;101326.91;5096913;28;20500;-80
2023/01/07 05:34:31;;;;;;;0.10;0.10;;;;;;;11.80;74.26;101311.03;5096602;28;20450;-81
2023/01/07 05:36:57;;;;;;;1.17;1.15;;;;;;;11.83;74.24;101305.69;5095234;28;20490;-81
2023/01/07 05:39:24;;;;;;;1.10;0.75;;;;;;;11.87;74.46;101301.19;5091945;28;20024;-80
2023/01/07 05:41:50;;;;;;;0.32;0.32;;;;;;;11.88;74.39;101302.94;5094934;28;20043;-80
2023/01/07 05:44:16;;;;;;;1.38;1.27;;;;;;;11.88;74.60;101298.50;5095579;28;20019;-79
2023/01/07 05:46:43;;;;;;;0.10;0.10;;;;;;;11.84;74.44;101293.25;5095994;28;20043;-80
2023/01/07 05:49:09;;;;;;;5.57;3.60;;;;;;;11.88;74.66;101292.31;5097378;28;20020;-79
2023/01/07 05:51:36;;;;;;;0.60;0.60;;;;;;;11.89;74.34;101294.94;5111908;28;20088;-78
2023/01/07 05:54:02;;;;;;;0.15;0.15;;;;;;;11.88;74.15;101293.19;5098538;28;20055;-80
2023/01/07 05:56:28;;;;;;;2.72;1.35;;;;;;;11.80;73.87;101282.72;5094624;28;20027;-80
2023/01/07 05:58:54;;;;;;;0.50;0.50;;;;;;;11.82;73.85;101285.34;5096222;28;20035;-80
2023/01/07 06:01:20;;;;;;;0.25;0.25;;;;;;;11.81;74.13;101283.56;5094801;28;20036;-80
2023/01/07 06:03:46;;;;;;;0.10;0.10;;;;;;;11.75;73.88;101267.75;5092635;28;20035;-80
2023/01/07 06:06:12;;;;;;;0.28;0.28;;;;;;;11.67;73.83;101267.91;5092366;28;20043;-81
2023/01/07 06:08:38;;;;;;;0.10;0.10;;;;;;;11.64;73.83;101263.53;5093222;28;20019;-81
2023/01/07 06:11:06;;;;;;;0.10;0.10;;;;;;;11.56;73.67;101254.81;5093275;28;20028;-81
2023/01/07 06:13:33;;;;;;;0.68;0.68;;;;;;;11.55;73.73;101254.84;5094879;28;20570;-80
2023/01/07 06:16:01;;;;;;;0.10;0.10;;;;;;;11.49;74.18;101248.75;5098002;28;20023;-81
2023/01/07 06:18:27;;;;;;;0.10;0.10;;;;;;;11.47;73.68;101247.03;5091739;28;20054;-81
2023/01/07 06:20:53;;;;;;;3.53;1.65;;;;;;;11.45;74.11;101241.75;5090345;28;20063;-81
2023/01/07 06:23:19;;;;;;;0.10;0.10;;;;;;;11.39;73.71;101246.25;5093628;28;21339;-81
2023/01/07 06:25:45;;;;;;;0.10;0.10;;;;;;;11.39;73.56;101238.31;5094839;28;20564;-81
2023/01/07 06:28:12;;;;;;;0.10;0.10;;;;;;;11.35;73.78;101244.56;5090904;28;20067;-80
2023/01/07 06:30:38;;;;;;;0.10;0.10;;;;;;;11.36;73.44;101235.72;5096975;28;20027;-81
2023/01/07 06:33:04;;;;;;;0.10;0.10;;;;;;;11.29;74.02;101230.53;5094117;28;20239;-80
2023/01/07 06:35:31;;;;;;;0.10;0.10;;;;;;;11.28;73.90;101223.47;5094360;28;20058;-81
2023/01/07 06:38:00;;;;;;;0.47;0.47;;;;;;;11.26;73.52;101235.00;5091839;28;20032;-80
2023/01/07 06:40:27;;;;;;;0.93;0.90;;;;;;;11.26;73.69;101225.25;5094353;28;20568;-81
2023/01/07 06:42:53;;;;;;;0.25;0.25;;;;;;;11.24;73.39;101226.19;5088994;28;20058;-81
2023/01/07 06:45:19;;;;;;;4.05;1.65;;;;;;;11.21;73.79;101211.19;5094614;28;20032;-81
2023/01/07 06:47:47;;;;;;;0.28;0.28;;;;;;;11.18;73.41;101216.56;5092773;28;20028;-80
2023/01/07 06:50:14;;;;;;;0.10;0.10;;;;;;;11.17;73.20;101220.09;5083918;28;20486;-81
2023/01/07 06:52:40;;;;;;;0.30;0.30;;;;;;;11.14;73.89;101220.16;5095049;28;20032;-79
2023/01/07 06:55:07;;;;;;;0.10;0.10;;;;;;;11.10;73.43;101226.41;5096155;28;20028;-79
2023/01/07 06:57:33;;;;;;;3.83;1.65;;;;;;;11.09;73.70;101220.25;5093794;28;20031;-78
2023/01/07 06:59:59;;;;;;;0.82;0.55;;;;;;;11.13;74.34;101210.47;5106301;28;20095;-80
2023/01/07 07:02:27;;;;;;;0.10;0.10;;;;;;;11.17;74.13;101209.50;5104978;28;20382;-80
2023/01/07 07:04:53;;;;;;;0.40;0.40;;;;;;;11.21;74.28;101215.63;5095847;28;20027;-82
2023/01/07 07:07:20;;;;;;;4.65;1.20;;;;;;;11.32;73.92;101219.84;5094075;28;20382;-81
2023/01/07 07:09:46;;;;;;;0.10;0.10;;;;;;;11.36;74.24;101209.19;5093814;28;20119;-81
2023/01/07 07:12:13;;;;;;;0.10;0.10;;;;;;;11.46;73.54;101205.47;5093629;28;20031;-80
2023/01/07 07:14:39;;;;;;;0.10;0.10;;;;;;;11.55;74.16;101205.31;5101860;28;20020;-81
2023/01/07 07:17:05;;;;;;;3.00;2.38;;;;;;;11.59;73.49;101196.38;5099021;28;20043;-81
2023/01/07 07:19:31;;;;;;;0.10;0.10;;;;;;;11.60;73.00;101197.25;5094588;28;20031;-80
2023/01/07 07:21:58;;;;;;;0.20;0.20;;;;;;;11.61;72.90;101204.31;5099191;28;20105;-81
2023/01/07 07:24:24;;;;;;;0.10;0.10;;;;;;;11.63;73.03;101200.72;5094679;28;20099;-81
2023/01/07 07:26:50;;;;;;;0.80;0.55;;;;;;;11.67;72.10;101190.94;5093720;28;20047;-81
2023/01/07 07:29:16;;;;;;;0.10;0.10;;;;;;;11.68;71.57;101189.16;5097291;28;20020;-82
2023/01/07 07:31:42;;;;;;;0.20;0.20;;;;;;;11.78;71.98;101190.72;5098545;28;20036;-81
2023/01/07 07:34:09;;;;;;;0.13;0.13;;;;;;;11.75;71.50;101193.44;5097529;28;20024;-81
2023/01/07 07:36:36;;;;;;;0.10;0.10;;;;;;;11.73;71.03;101190.81;5115661;28;20067;-80
2023/01/07 07:39:03;;;;;;;0.10;0.10;;;;;;;11.81;71.58;101188.00;5099103;28;20032;-80
2023/01/07 07:41:30;;;;;;;0.10;0.10;;;;;;;11.81;70.69;101188.91;5092979;28;20028;-80
2023/01/07 07:43:56;;;;;;;0.10;0.10;;;;;;;11.79;70.47;101185.38;5081045;28;20067;-79
2023/01/07 07:46:22;;;;;;;0.10;0.10;;;;;;;11.86;70.30;101183.47;5077913;28;20020;-80
2023/01/07 07:48:49;;;;;;;0.75;0.75;;;;;;;11.86;70.81;101183.47;5078968;28;20035;-81
2023/01/07 07:51:15;;;;;;;0.10;0.10;;;;;;;11.88;70.80;101180.81;5089606;28;20052;-81
2023/01/07 07:53:41;;;;;;;0.13;0.13;;;;;;;11.85;69.33;101176.44;5085784;28;20033;-80
2023/01/07 07:56:08;;;;;;;0.10;0.10;;;;;;;11.85;69.47;101176.44;5095318;28;20510;-81
2023/01/07 07:58:35;;;;;;;0.90;0.90;;;;;;;11.86;69.95;101180.81;5096751;28;20035;-81
2023/01/07 08:01:01;;;;;;;1.10;0.52;;;;;;;11.87;69.77;101177.25;5100117;28;20032;-82
2023/01/07 08:03:27;;;;;;;0.00;0.00;;;;;;;11.89;69.84;101171.94;5093585;28;20040;-82
2023/01/07 08:05:53;;;;;;;0.10;0.10;;;;;;;11.89;69.43;101172.81;5088165;28;20048;-79
2023/01/07 08:08:19;;;;;;;0.30;0.30;;;;;;;11.85;68.74;101164.91;5106071;28;20012;-80
2023/01/07 08:10:46;;;;;;;0.10;0.10;;;;;;;11.88;69.44;101173.69;5103336;28;20040;-80
2023/01/07 08:13:12;;;;;;;0.10;0.10;;;;;;;11.89;69.17;101171.94;5087281;28;20029;-82
2023/01/07 08:15:38;;;;;;;0.10;0.10;;;;;;;11.90;68.79;101169.25;5092915;28;20020;-81
2023/01/07 08:18:07;;;;;;;0.10;0.10;;;;;;;11.85;68.23;101165.81;5097801;28;20024;-80
2023/01/07 08:20:34;;;;;;;14.43;0.88;;;;;;;11.89;68.63;101171.94;5098294;28;20051;-81
2023/01/07 08:23:02;;;;;;;0.10;0.10;;;;;;;11.87;67.99;101169.28;5098765;28;20047;-80
2023/01/07 08:25:30;;;;;;;0.10;0.10;;;;;;;11.89;68.47;101158.66;5096661;28;20024;-80
2023/01/07 08:27:58;;;;;;;0.10;0.10;;;;;;;11.89;68.01;101156.88;5097998;28;20035;-80
2023/01/07 08:30:24;;;;;;;0.10;0.10;;;;;;;11.87;68.61;101150.72;5097394;28;20031;-80
2023/01/07 08:32:50;;;;;;;0.00;0.00;;;;;;;11.87;68.04;101153.38;5097827;28;20578;-79
2023/01/07 08:35:17;;;;;;;0.10;0.10;;;;;;;11.86;68.13;101156.91;5106427;28;20035;-79
2023/01/07 08:37:43;;;;;;;1.50;1.40;;;;;;;11.92;68.36;101156.78;5110348;28;20051;-78
2023/01/07 08:40:11;;;;;;;0.40;0.40;;;;;;;11.87;67.97;101152.50;5097526;28;20040;-80
2023/01/07 08:42:37;;;;;;;0.10;0.10;;;;;;;11.92;67.96;101153.28;5097645;28;20047;-80
2023/01/07 08:45:05;;;;;;;0.30;0.30;;;;;;;11.92;67.54;101143.53;5097803;28;20032;-80
2023/01/07 08:47:31;;;;;;;0.10;0.10;;;;;;;11.90;68.21;101142.69;5098046;28;20024;-80
2023/01/07 08:49:57;;;;;;;0.10;0.10;;;;;;;11.93;67.70;101133.78;5097211;28;20024;-79
2023/01/07 08:52:24;;;;;;;0.10;0.10;;;;;;;11.94;67.30;101143.50;5096719;28;20493;-80
2023/01/07 08:54:50;;;;;;;0.10;0.10;;;;;;;12.00;67.82;101137.22;5096405;28;20070;-80
2023/01/07 08:57:17;;;;;;;0.10;0.10;;;;;;;11.93;67.50;101136.44;5097499;28;20032;-80
2023/01/07 08:59:43;;;;;;;0.10;0.10;;;;;;;11.99;66.93;101136.34;5097242;28;20032;-80
2023/01/07 09:02:13;;;;;;;0.52;0.52;;;;;;;11.96;66.92;101137.28;5098131;28;20063;-80
2023/01/07 09:04:40;;;;;;;0.10;0.10;;;;;;;12.01;66.67;101133.66;5096767;28;20048;-80
2023/01/07 09:07:06;;;;;;;0.10;0.10;;;;;;;12.07;66.72;101130.88;5095875;28;20158;-79
2023/01/07 09:09:32;;;;;;;0.10;0.10;;;;;;;12.10;66.85;101133.44;5095880;28;20023;-80
2023/01/07 09:11:58;;;;;;;0.20;0.20;;;;;;;12.08;66.60;101127.31;5095779;28;20406;-80
2023/01/07 09:14:24;;;;;;;0.10;0.10;;;;;;;12.11;67.00;101124.56;5096985;28;20040;-80
2023/01/07 09:16:50;;;;;;;0.10;0.10;;;;;;;12.10;65.79;101117.50;5110714;28;20012;-80
2023/01/07 09:19:16;;;;;;;0.10;0.10;;;;;;;12.15;67.01;101120.97;5106513;28;20054;-80
2023/01/07 09:21:42;;;;;;;0.15;0.15;;;;;;;12.19;66.79;101106.69;5096715;28;20032;-80
2023/01/07 09:24:08;;;;;;;0.20;0.20;;;;;;;12.19;66.33;101103.19;5099954;28;20143;-79
2023/01/07 09:26:35;;;;;;;0.10;0.10;;;;;;;12.15;65.62;101102.38;5104619;28;20028;-79
2023/01/07 09:29:01;;;;;;;0.10;0.10;;;;;;;12.15;65.44;101089.09;5102245;28;20103;-79
2023/01/07 09:31:29;;;;;;;0.52;0.52;;;;;;;12.18;65.25;101086.34;5094091;28;20032;-80
2023/01/07 09:33:55;;;;;;;0.10;0.10;;;;;;;12.20;65.82;101089.84;5097536;28;20629;-79
2023/01/07 09:36:22;;;;;;;0.10;0.10;;;;;;;12.11;64.97;101072.34;5094971;28;20024;-79
2023/01/07 09:38:48;;;;;;;0.10;0.10;;;;;;;12.19;64.91;101072.16;5095006;28;20055;-80
2023/01/07 09:44:46;;;;;;;0.20;0.20;;;;;;;12.27;64.37;101069.31;5072789;28;20414;-78
2023/01/07 09:47:16;;;;;;;0.10;0.10;;;;;;;12.27;63.96;101067.56;5063789;28;20041;-80
2023/01/07 09:49:46;;;;;;;0.20;0.20;;;;;;;12.28;63.92;101058.66;5053283;28;20022;-82
2023/01/07 09:54:52;;;;;;;0.10;0.10;;;;;;;12.24;62.61;101056.97;5066689;28;20392;-80
2023/01/07 09:57:19;;;;;;;0.10;0.10;;;;;;;12.38;63.02;101047.81;5073567;28;20025;-79
2023/01/07 09:59:45;;;;;;;0.10;0.10;;;;;;;12.40;62.27;101045.97;5070864;28;20024;-79
2023/01/07 10:10:52;;;;;;;0.10;0.10;;;;;;;12.70;62.18;101033.72;5097543;28;20436;-80
2023/01/07 10:16:17;;;;;;;0.10;0.10;;;;;;;12.86;61.29;101023.56;5109953;27;20416;-79
2023/01/07 10:21:25;;;;;;;0.10;0.10;;;;;;;13.01;60.64;101005.44;5115365;27;20380;-78
2023/01/07 10:24:01;;;;;;;0.20;0.20;;;;;;;13.00;60.28;101003.72;5112235;28;20035;-79
2023/01/07 10:29:28;;;;;;;0.10;0.10;;;;;;;13.08;60.35;100991.03;5115716;27;20362;-80
2023/01/07 10:31:59;;;;;;;0.10;0.10;;;;;;;12.99;59.63;100992.19;5102591;28;20059;-80
2023/01/07 10:34:33;;;;;;;0.90;0.90;;;;;;;13.05;60.06;100980.50;5107214;28;20056;-78
2023/01/07 10:37:07;;;;;;;0.10;0.10;;;;;;;13.04;60.04;100974.28;5107906;28;20073;-78
2023/01/07 10:40:13;;;;;;;0.10;0.10;;;;;;;13.10;59.89;100973.25;5110313;28;20056;-78
2023/01/07 10:42:55;;;;;;;0.10;0.10;;;;;;;13.00;59.91;100963.81;5099582;28;20081;-79
2023/01/07 10:45:40;;;;;;;0.10;0.10;;;;;;;13.15;59.87;100960.69;5090814;28;20148;-78
2023/01/07 10:48:29;;;;;;;0.10;0.10;;;;;;;13.19;59.56;100951.69;5095782;28;20107;-78
2023/01/07 10:51:35;;;;;;;0.10;0.10;;;;;;;13.23;59.01;100941.84;5106906;28;20031;-80
2023/01/07 10:54:32;;;;;;;0.10;0.10;;;;;;;13.29;59.23;100924.84;5089089;28;20027;-80
2023/01/07 10:57:06;;;;;;;0.45;0.45;;;;;;;13.30;59.15;100915.94;5095383;28;20050;-79
2023/01/07 10:59:32;;;;;;;0.10;0.10;;;;;;;13.29;59.64;100908.88;5104481;28;20030;-78
2023/01/07 11:01:59;;;;;;;0.10;0.10;;;;;;;13.37;58.80;100909.50;5101055;28;20085;-78
2023/01/07 11:04:25;;;;;;;0.10;0.10;;;;;;;13.39;59.02;100905.03;5114838;28;20395;-78
2023/01/07 11:07:03;;;;;;;0.10;0.10;;;;;;;13.41;58.39;100904.06;5106705;28;20040;-79
2023/01/07 11:09:34;;;;;;;0.15;0.15;;;;;;;13.43;58.66;100888.03;5107563;28;20619;-79
2023/01/07 11:12:15;;;;;;;0.10;0.10;;;;;;;13.41;58.53;100888.09;5101232;28;20049;-78
2023/01/07 11:14:42;;;;;;;0.10;0.10;;;;;;;13.46;58.57;100881.75;5108136;28;20444;-79
2023/01/07 11:17:18;;;;;;;0.10;0.10;;;;;;;13.45;58.53;100872.91;5110558;28;20031;-79
2023/01/07 11:19:48;;;;;;;0.00;0.00;;;;;;;13.36;57.95;100865.19;5108327;28;20028;-79
2023/01/07 11:22:32;;;;;;;0.10;0.10;;;;;;;13.36;57.75;100858.06;5093307;28;20059;-80
2023/01/07 11:25:01;;;;;;;0.10;0.10;;;;;;;13.38;58.86;100860.72;5091582;28;20077;-80
2023/01/07 11:27:32;;;;;;;0.10;0.10;;;;;;;13.33;58.14;100858.16;5092298;28;20078;-79
2023/01/07 11:32:48;;;;;;;0.10;0.10;;;;;;;13.31;57.47;100853.81;5159269;27;20463;-78
2023/01/07 11:37:52;;;;;;;0.10;0.10;;;;;;;13.49;57.41;100842.59;5118643;27;20347;-82
2023/01/07 11:40:23;;;;;;;0.30;0.30;;;;;;;13.47;57.09;100838.25;5112291;28;20421;-84
2023/01/07 11:42:55;;;;;;;0.20;0.20;;;;;;;13.50;57.50;100833.72;5116695;28;20035;-83
2023/01/07 11:50:38;;;;;;;0.10;0.10;;;;;;;13.46;57.57;100820.53;5095207;27;1873285;-79
2023/01/07 11:56:25;;;;;;;0.20;0.20;;;;;;;13.50;57.61;100817.75;5111741;27;20770;-78
2023/01/07 12:01:52;;;;;;;0.10;0.10;;;;;;;13.49;57.50;100799.16;5070348;28;20403;-80
2023/01/07 12:04:39;;;;;;;0.10;0.10;;;;;;;13.50;57.29;100806.22;5072277;28;20064;-79
2023/01/07 12:07:11;;;;;;;0.10;0.10;;;;;;;13.44;57.25;100796.66;5072099;28;20025;-79
2023/01/07 12:09:40;;;;;;;0.10;0.10;;;;;;;13.43;57.76;100778.94;5063445;28;20581;-78
2023/01/07 12:12:30;;;;;;;0.20;0.20;;;;;;;13.40;57.38;100784.38;5068832;28;20036;-79
2023/01/07 12:14:58;;;;;;;0.30;0.30;;;;;;;13.37;57.07;100771.13;5056273;28;20033;-79
2023/01/07 12:17:27;;;;;;;0.30;0.30;;;;;;;13.40;57.24;100765.75;5070859;28;20036;-78
2023/01/07 12:20:10;;;;;;;0.15;0.15;;;;;;;13.43;58.07;100766.50;5070633;28;20509;-79
2023/01/07 12:22:49;;;;;;;0.10;0.10;;;;;;;13.39;57.68;100762.19;5070835;28;20054;-79
2023/01/07 12:25:43;;;;;;;0.20;0.20;;;;;;;13.42;57.45;100753.22;5058451;28;20040;-79
2023/01/07 12:28:17;;;;;;;0.10;0.10;;;;;;;13.43;57.83;100749.66;5065883;28;20025;-79
2023/01/07 12:31:01;;;;;;;26.92;3.10;;;;;;;13.42;58.06;100738.16;5064968;28;20028;-79
2023/01/07 12:34:00;;;;;;;0.10;0.10;;;;;;;13.40;57.27;100731.13;5066139;28;20024;-80
2023/01/07 12:39:11;;;;;;;0.10;0.10;;;;;;;13.32;57.46;100711.84;5122291;27;20404;-79
2023/01/07 12:41:43;;;;;;;0.20;0.20;;;;;;;13.36;57.58;100718.84;5136087;27;20401;-79